Time;durP1;ratioP1;P1;durP2;ratioP2;P2;SDS_P1;SDS_P2;PMS_P1;PMS_P2;Temp;Humidity;BMP_temperature;BMP_pressure;BME280_temperature;BME280_humidity;BME280_pressure;Samples;Min_cycle;Max_cycle;Signal;HPM_P1;HPM_P2
2022/07/11 00:01:10;;;;;;;;;;;;;;;16.77;44.99;100587.06;5312834;32;34949;-76
2022/07/11 00:04:12;;;;;;;;;;;;;;;16.81;45.01;100582.44;5320623;32;35620;-84
2022/07/11 00:07:14;;;;;;;;;;;;;;;17.50;43.08;100588.66;5337061;32;35487;-83
2022/07/11 00:10:16;;;;;;;;;;;;;;;16.84;44.88;100592.84;5348110;32;34527;-76
2022/07/11 00:13:18;;;;;;;;;;;;;;;17.03;44.67;100597.88;5349323;32;35181;-76
2022/07/11 00:16:20;;;;;;;;;;;;;;;17.33;43.69;100592.44;5329566;32;46035;-83
2022/07/11 00:19:22;;;;;;;;;;;;;;;16.45;45.87;100596.09;5343108;32;34384;-76
2022/07/11 00:22:24;;;;;;;;;;;;;;;17.28;44.09;100598.03;5332108;32;35082;-76
2022/07/11 00:25:26;;;;;;;;;;;;;;;17.57;43.65;100592.63;5339405;32;35323;-83
2022/07/11 00:28:28;;;;;;;;;;;;;;;17.18;44.50;100598.69;5338999;32;35463;-83
2022/07/11 00:31:30;;;;;;;;;;;;;;;17.58;43.65;100591.69;5330751;32;34432;-81
2022/07/11 00:34:32;;;;;;;;;;;;;;;16.81;45.57;100589.50;5332827;32;35450;-81
2022/07/11 00:37:34;;;;;;;;;;;;;;;16.89;45.41;100590.75;5325879;32;34806;-75
2022/07/11 00:40:36;;;;;;;;;;;;;;;17.30;44.07;100584.62;5350393;32;34353;-83
2022/07/11 00:43:39;;;;;;;;;;;;;;;16.91;45.40;100598.62;5326418;32;34899;-75
2022/07/11 00:46:41;;;;;;;;;;;;;;;16.78;45.65;100586.09;5327020;32;35244;-76
2022/07/11 00:49:44;;;;;;;;;;;;;;;17.29;44.27;100590.91;5341335;32;34495;-76
2022/07/11 00:52:46;;;;;;;;;;;;;;;17.09;44.84;100586.00;5329117;32;34577;-83
2022/07/11 00:55:49;;;;;;;;;;;;;;;17.18;44.46;100596.03;5347188;32;34136;-76
2022/07/11 00:58:51;;;;;;;;;;;;;;;16.79;45.75;100584.31;5327056;32;44721;-76
2022/07/11 01:01:53;;;;;;;;;;;;;;;16.59;46.32;100587.28;5323765;32;34818;-76
2022/07/11 01:04:55;;;;;;;;;;;;;;;16.72;46.19;100590.94;5318509;32;36020;-76
2022/07/11 01:07:57;;;;;;;;;;;;;;;16.88;45.84;100589.06;5320259;32;34915;-83
2022/07/11 01:11:01;;;;;;;;;;;;;;;16.61;46.90;100586.25;5344701;32;34366;-83
2022/07/11 01:14:03;;;;;;;;;;;;;;;16.88;46.28;100586.41;5332032;32;36234;-75
2022/07/11 01:17:05;;;;;;;;;;;;;;;16.85;46.04;100583.94;5344765;32;36094;-83
2022/07/11 01:20:07;;;;;;;;;;;;;;;16.22;47.94;100574.44;5328614;32;35226;-83
2022/07/11 01:23:09;;;;;;;;;;;;;;;16.95;46.33;100576.25;5341654;32;34174;-75
2022/07/11 01:26:11;;;;;;;;;;;;;;;16.90;46.30;100578.34;5329842;32;34431;-76
2022/07/11 01:29:13;;;;;;;;;;;;;;;16.78;46.75;100583.47;5333873;32;34194;-76
2022/07/11 01:32:18;;;;;;;;;;;;;;;16.62;47.37;100582.69;5324827;32;36057;-81
2022/07/11 01:35:21;;;;;;;;;;;;;;;16.34;48.04;100587.91;5328724;32;44736;-82
2022/07/11 01:38:23;;;;;;;;;;;;;;;16.18;48.68;100583.53;5332420;32;35286;-76
2022/07/11 01:41:24;;;;;;;;;;;;;;;16.55;47.72;100581.34;5329780;32;35887;-82
2022/07/11 01:44:26;;;;;;;;;;;;;;;16.29;48.49;100582.87;5336067;32;35116;-80
2022/07/11 01:47:28;;;;;;;;;;;;;;;16.01;49.21;100574.88;5318288;32;35690;-76
2022/07/11 01:50:30;;;;;;;;;;;;;;;16.34;48.49;100574.66;5318882;32;35364;-76
2022/07/11 01:53:32;;;;;;;;;;;;;;;16.21;48.76;100574.53;5344498;32;34363;-75
2022/07/11 01:56:34;;;;;;;;;;;;;;;16.59;47.94;100582.00;5329891;32;36782;-84
2022/07/11 01:59:36;;;;;;;;;;;;;;;15.78;50.00;100571.78;5346529;32;35192;-81
2022/07/11 02:02:38;;;;;;;;;;;;;;;15.98;49.59;100574.12;5300872;32;34235;-76
2022/07/11 02:05:40;;;;;;;;;;;;;;;16.38;48.53;100577.03;5347690;32;34837;-82
2022/07/11 02:08:42;;;;;;;;;;;;;;;16.19;49.23;100571.97;5330661;32;35458;-82
2022/07/11 02:11:44;;;;;;;;;;;;;;;16.16;49.30;100572.16;5342073;32;34167;-76
2022/07/11 02:14:46;;;;;;;;;;;;;;;16.32;49.05;100572.09;5345719;32;35650;-76
2022/07/11 02:17:48;;;;;;;;;;;;;;;16.00;49.69;100575.81;5325940;32;35001;-76
2022/07/11 02:20:50;;;;;;;;;;;;;;;16.16;49.20;100572.16;5333784;32;44818;-82
2022/07/11 02:23:52;;;;;;;;;;;;;;;16.28;48.79;100575.03;5329077;32;34982;-83
2022/07/11 02:26:54;;;;;;;;;;;;;;;16.27;49.13;100578.63;5345655;32;35574;-75
2022/07/11 02:29:55;;;;;;;;;;;;;;;15.82;50.23;100589.19;5331631;32;35480;-76
2022/07/11 02:32:57;;;;;;;;;;;;;;;15.73;50.46;100581.78;5316850;32;35366;-82
2022/07/11 02:35:59;;;;;;;;;;;;;;;16.54;48.61;100590.22;5345839;32;35920;-81
2022/07/11 02:39:01;;;;;;;;;;;;;;;16.04;49.90;100591.47;5330657;32;34922;-81
2022/07/11 02:42:04;;;;;;;;;;;;;;;15.67;50.94;100604.16;5347593;32;34410;-75
2022/07/11 02:45:07;;;;;;;;;;;;;;;16.17;50.01;100597.75;5329967;32;34022;-76
2022/07/11 02:48:09;;;;;;;;;;;;;;;15.79;51.15;100601.78;5343250;32;34685;-76
2022/07/11 02:51:11;;;;;;;;;;;;;;;16.39;49.56;100607.06;5328399;32;36103;-82
2022/07/11 02:54:13;;;;;;;;;;;;;;;16.87;48.32;100602.41;5331175;32;34834;-82
2022/07/11 02:57:15;;;;;;;;;;;;;;;16.26;49.76;100599.00;5345380;32;33331;-76
2022/07/11 03:00:17;;;;;;;;;;;;;;;16.24;50.01;100601.75;5320062;32;37493;-81
2022/07/11 03:03:20;;;;;;;;;;;;;;;16.10;50.14;100603.47;5318992;32;45220;-85
2022/07/11 03:06:22;;;;;;;;;;;;;;;15.91;50.88;100596.63;5330334;32;35227;-75
2022/07/11 03:09:24;;;;;;;;;;;;;;;16.22;50.36;100605.41;5359206;32;35488;-77
2022/07/11 03:12:27;;;;;;;;;;;;;;;15.97;50.91;100613.94;5337097;32;34974;-82
2022/07/11 03:15:28;;;;;;;;;;;;;;;16.06;50.85;100605.47;5332507;32;34777;-74
2022/07/11 03:18:30;;;;;;;;;;;;;;;16.16;50.62;100611.06;5341563;32;35552;-77
2022/07/11 03:21:32;;;;;;;;;;;;;;;15.11;53.45;100617.88;5307307;32;35366;-76
2022/07/11 03:24:35;;;;;;;;;;;;;;;15.76;51.93;100607.22;5348083;32;36504;-83
2022/07/11 03:27:37;;;;;;;;;;;;;;;15.77;51.50;100608.94;5327845;32;34646;-76
2022/07/11 03:30:39;;;;;;;;;;;;;;;15.76;52.03;100613.37;5342228;32;34533;-82
2022/07/11 03:33:41;;;;;;;;;;;;;;;15.79;51.89;100617.66;5310926;32;34457;-76
2022/07/11 03:36:46;;;;;;;;;;;;;;;16.19;50.82;100600.31;5328095;32;34022;-76
2022/07/11 03:39:48;;;;;;;;;;;;;;;15.61;52.27;100612.44;5346698;32;36567;-77
2022/07/11 03:42:50;;;;;;;;;;;;;;;16.45;50.06;100607.56;5328814;32;44460;-83
2022/07/11 03:45:52;;;;;;;;;;;;;;;16.87;48.78;100594.44;5348691;32;34120;-83
2022/07/11 03:48:54;;;;;;;;;;;;;;;16.00;51.21;100615.56;5348802;32;34763;-81
2022/07/11 03:51:56;;;;;;;;;;;;;;;17.09;48.41;100613.41;5351631;32;34621;-77
2022/07/11 03:54:58;;;;;;;;;;;;;;;17.20;47.56;100618.06;5320823;32;34985;-76
2022/07/11 03:58:00;;;;;;;;;;;;;;;16.93;48.62;100615.31;5321891;32;34248;-76
2022/07/11 04:01:01;;;;;;;;;;;;;;;17.68;46.80;100616.72;5328931;32;34332;-80
2022/07/11 04:04:05;;;;;;;;;;;;;;;17.46;47.20;100621.72;5315025;32;34834;-81
2022/07/11 04:07:07;;;;;;;;;;;;;;;17.67;46.14;100615.00;5349362;32;36364;-83
2022/07/11 04:10:09;;;;;;;;;;;;;;;16.98;48.23;100618.53;5328934;32;34707;-81
2022/07/11 04:13:11;;;;;;;;;;;;;;;16.90;48.77;100618.16;5326350;32;35329;-75
2022/07/11 04:16:13;;;;;;;;;;;;;;;17.65;47.03;100621.41;5337584;32;35557;-83
2022/07/11 04:19:15;;;;;;;;;;;;;;;17.77;46.18;100620.59;5330231;32;34395;-77
2022/07/11 04:22:17;;;;;;;;;;;;;;;18.09;45.65;100624.66;5345377;32;35170;-80
2022/07/11 04:25:19;;;;;;;;;;;;;;;17.66;46.61;100631.06;5346593;32;44780;-83
2022/07/11 04:28:21;;;;;;;;;;;;;;;18.02;45.73;100626.00;5349288;32;34334;-82
2022/07/11 04:31:23;;;;;;;;;;;;;;;18.07;45.70;100633.69;5330261;32;35143;-82
2022/07/11 04:34:25;;;;;;;;;;;;;;;17.51;46.88;100636.41;5341630;32;34785;-76
2022/07/11 04:37:28;;;;;;;;;;;;;;;17.33;47.30;100630.47;5335528;32;35818;-76
2022/07/11 04:40:30;;;;;;;;;;;;;;;17.48;47.25;100641.06;5329257;32;35801;-82
2022/07/11 04:43:31;;;;;;;;;;;;;;;17.93;45.97;100637.28;5347535;32;36341;-81
2022/07/11 04:46:33;;;;;;;;;;;;;;;17.87;45.71;100637.66;5328788;32;34986;-75
2022/07/11 04:49:36;;;;;;;;;;;;;;;18.35;45.06;100630.91;5335200;32;35160;-81
2022/07/11 04:52:38;;;;;;;;;;;;;;;18.30;44.98;100638.34;5331142;32;34570;-82
2022/07/11 04:55:42;;;;;;;;;;;;;;;18.16;45.20;100641.06;5338677;32;35259;-82
2022/07/11 04:58:44;;;;;;;;;;;;;;;18.43;44.79;100635.72;5328636;32;35873;-83
2022/07/11 05:01:46;;;;;;;;;;;;;;;18.30;44.33;100635.69;5308013;32;34656;-77
2022/07/11 05:04:49;;;;;;;;;;;;;;;18.03;45.57;100648.13;5340775;32;38447;-82
2022/07/11 05:07:50;;;;;;;;;;;;;;;18.49;44.24;100626.47;5325249;32;35203;-77
2022/07/11 05:10:53;;;;;;;;;;;;;;;18.85;43.67;100645.25;5349977;32;36122;-83
2022/07/11 05:13:55;;;;;;;;;;;;;;;18.96;43.48;100648.97;5332294;32;35326;-77
2022/07/11 05:16:57;;;;;;;;;;;;;;;18.27;44.93;100649.19;5334085;32;35457;-83
2022/07/11 05:19:59;;;;;;;;;;;;;;;18.61;43.97;100652.22;5336540;32;34973;-83
2022/07/11 05:23:01;;;;;;;;;;;;;;;19.84;41.57;100647.13;5316016;32;35117;-84
2022/07/11 05:26:04;;;;;;;;;;;;;;;19.92;41.14;100650.91;5347359;32;35137;-76
2022/07/11 05:29:06;;;;;;;;;;;;;;;20.32;40.09;100653.28;5331168;32;34980;-83
2022/07/11 05:32:08;;;;;;;;;;;;;;;19.49;42.17;100659.34;5348123;32;34741;-77
2022/07/11 05:35:10;;;;;;;;;;;;;;;19.98;41.07;100653.13;5326217;32;34578;-78
2022/07/11 05:38:12;;;;;;;;;;;;;;;20.36;40.25;100652.09;5334628;32;34738;-75
2022/07/11 05:41:14;;;;;;;;;;;;;;;20.30;39.93;100657.87;5339564;32;33471;-78
2022/07/11 05:44:17;;;;;;;;;;;;;;;21.73;37.15;100652.94;5330967;32;34517;-76
2022/07/11 05:47:19;;;;;;;;;;;;;;;22.26;36.55;100661.91;5349351;32;47472;-79
2022/07/11 05:50:21;;;;;;;;;;;;;;;21.61;37.34;100661.00;5322066;32;33064;-74
2022/07/11 05:53:23;;;;;;;;;;;;;;;21.41;37.30;100659.06;5342432;32;34583;-72
2022/07/11 05:59:42;;;;;;;;;;;;;;;22.03;37.03;100653.13;5377122;32;20223;-88
2022/07/11 06:03:03;;;;;;;;;;;;;;;22.66;34.94;100658.53;5380363;32;34554;-92
2022/07/11 06:06:06;;;;;;;;;;;;;;;22.20;35.66;100667.78;5367024;32;35752;-90
2022/07/11 06:09:11;;;;;;;;;;;;;;;21.08;37.95;100665.25;5373791;32;44357;-92
2022/07/11 06:12:24;;;;;;;;;;;;;;;22.37;35.63;100663.72;5359435;32;34751;-91
2022/07/11 06:15:37;;;;;;;;;;;;;;;23.15;34.25;100665.06;5366874;32;35217;-94
2022/07/11 06:23:23;;;;;;;;;;;;;;;21.77;36.62;100667.78;5338531;32;35087;-92
2022/07/11 06:27:01;;;;;;;;;;;;;;;22.34;35.63;100661.28;5341496;32;37039;-89
2022/07/11 06:30:17;;;;;;;;;;;;;;;22.95;34.05;100664.13;5268168;32;34563;-93
2022/07/11 06:33:25;;;;;;;;;;;;;;;24.31;31.95;100654.63;5368323;32;35745;-93
2022/07/11 06:36:45;;;;;;;;;;;;;;;24.81;30.87;100651.75;5372500;32;43900;-92
2022/07/11 06:40:03;;;;;;;;;;;;;;;26.20;28.87;100651.63;5332277;32;35859;-93
2022/07/11 06:43:07;;;;;;;;;;;;;;;25.93;29.12;100653.38;5347072;32;35021;-92
2022/07/11 06:46:11;;;;;;;;;;;;;;;27.03;27.65;100649.41;5347133;32;43570;-94
2022/07/11 06:49:18;;;;;;;;;;;;;;;26.26;28.03;100644.78;5340969;32;34803;-90
2022/07/11 06:52:29;;;;;;;;;;;;;;;27.94;25.74;100659.59;5358740;32;34457;-93
2022/07/11 06:55:49;;;;;;;;;;;;;;;25.38;29.44;100661.50;5307625;32;44368;-89
2022/07/11 06:59:05;;;;;;;;;;;;;;;22.99;33.50;100673.59;5336023;32;34704;-90
2022/07/11 07:02:12;;;;;;;;;;;;;;;23.28;33.26;100675.56;5335466;32;44700;-93
2022/07/11 07:05:18;;;;;;;;;;;;;;;25.20;30.14;100676.72;5323334;32;33537;-91
2022/07/11 07:08:27;;;;;;;;;;;;;;;24.35;31.67;100671.34;5308580;32;35228;-92
2022/07/11 07:11:45;;;;;;;;;;;;;;;22.88;33.98;100681.72;5314420;32;35829;-91
2022/07/11 07:14:49;;;;;;;;;;;;;;;24.21;31.67;100678.78;5354521;32;34062;-94
2022/07/11 07:17:55;;;;;;;;;;;;;;;23.77;32.73;100677.47;5333001;32;36290;-93
2022/07/11 07:21:14;;;;;;;;;;;;;;;23.58;32.83;100677.37;5346649;32;33546;-90
2022/07/11 07:24:28;;;;;;;;;;;;;;;25.89;28.99;100675.38;5362273;32;35214;-91
2022/07/11 07:27:49;;;;;;;;;;;;;;;26.50;28.28;100663.03;5286697;32;43337;-92
2022/07/11 07:31:11;;;;;;;;;;;;;;;25.59;29.63;100673.84;5307005;32;33836;-93
2022/07/11 07:34:29;;;;;;;;;;;;;;;28.37;25.66;100658.50;5315723;32;35129;-91
2022/07/11 07:37:54;;;;;;;;;;;;;;;28.27;24.86;100672.16;5300353;32;33304;-92
2022/07/11 07:41:00;;;;;;;;;;;;;;;27.50;25.76;100673.25;5292886;32;34278;-93
2022/07/11 07:44:07;;;;;;;;;;;;;;;26.03;27.48;100674.87;5293780;32;44929;-91
2022/07/11 07:51:10;;;;;;;;;;;;;;;26.18;28.06;100669.78;5315544;32;34952;-92
2022/07/11 07:54:34;;;;;;;;;;;;;;;26.15;28.29;100665.56;5290981;32;34367;-93
2022/07/11 07:58:04;;;;;;;;;;;;;;;21.91;35.11;100683.56;5281984;32;33882;-93
2022/07/11 08:04:51;;;;;;;;;;;;;;;23.65;32.54;100683.94;5301697;32;33841;-91
2022/07/11 08:08:00;;;;;;;;;;;;;;;24.21;31.52;100681.47;5324944;32;42852;-91
2022/07/11 08:11:09;;;;;;;;;;;;;;;24.01;32.11;100685.13;5314380;32;34616;-91
2022/07/11 08:14:36;;;;;;;;;;;;;;;23.55;32.83;100675.81;5348172;32;44823;-92
2022/07/11 08:17:56;;;;;;;;;;;;;;;23.10;32.99;100678.88;5377639;32;33370;-93
2022/07/11 08:21:19;;;;;;;;;;;;;;;24.06;31.36;100666.75;5358250;32;34846;-91
2022/07/11 08:24:33;;;;;;;;;;;;;;;23.81;31.46;100678.88;5378925;32;33884;-92
2022/07/11 08:27:39;;;;;;;;;;;;;;;23.75;30.86;100682.09;5374183;32;44573;-90
2022/07/11 08:30:48;;;;;;;;;;;;;;;25.22;29.20;100665.81;5369085;32;34403;-91
2022/07/11 08:34:02;;;;;;;;;;;;;;;25.82;27.28;100667.06;5394458;32;34938;-91
2022/07/11 08:37:22;;;;;;;;;;;;;;;25.91;28.47;100662.62;5350170;32;34820;-91
2022/07/11 08:40:43;;;;;;;;;;;;;;;26.73;26.53;100658.84;5347276;32;34627;-91
2022/07/11 08:44:12;;;;;;;;;;;;;;;25.98;27.82;100657.47;5379377;32;34533;-93
2022/07/11 08:47:14;;;;;;;;;;;;;;;27.76;25.35;100651.66;5370596;32;44355;-91
2022/07/11 08:50:22;;;;;;;;;;;;;;;28.62;23.13;100653.09;5387882;32;33667;-92
2022/07/11 08:53:45;;;;;;;;;;;;;;;27.06;24.54;100643.75;5416342;32;43332;-91
2022/07/11 08:56:52;;;;;;;;;;;;;;;27.29;24.26;100644.00;5380502;32;36897;-92
2022/07/11 08:59:56;;;;;;;;;;;;;;;29.74;21.12;100628.56;5379496;32;35545;-93
2022/07/11 09:03:05;;;;;;;;;;;;;;;28.35;23.16;100632.66;5412329;32;34229;-91
2022/07/11 09:06:11;;;;;;;;;;;;;;;29.59;21.68;100631.19;5400135;32;43952;-95
2022/07/11 09:09:14;;;;;;;;;;;;;;;30.79;19.63;100622.53;5390588;32;43398;-91
2022/07/11 09:12:26;;;;;;;;;;;;;;;28.24;22.76;100637.34;5373055;32;34483;-94
2022/07/11 09:15:37;;;;;;;;;;;;;;;28.52;22.44;100640.56;5371985;32;34128;-93
2022/07/11 09:18:42;;;;;;;;;;;;;;;30.23;20.06;100624.69;5356269;32;45602;-93
2022/07/11 09:25:34;;;;;;;;;;;;;;;27.72;23.39;100628.66;5386110;32;35141;-91
2022/07/11 09:28:37;;;;;;;;;;;;;;;28.76;21.76;100611.81;5342526;32;43202;-90
2022/07/11 09:31:51;;;;;;;;;;;;;;;29.06;20.92;100612.97;5391589;32;34714;-89
2022/07/11 09:35:03;;;;;;;;;;;;;;;29.11;20.96;100606.00;5373864;32;34278;-91
2022/07/11 09:38:18;;;;;;;;;;;;;;;29.32;20.81;100599.16;5383551;32;43524;-90
2022/07/11 09:41:24;;;;;;;;;;;;;;;28.81;20.84;100593.22;5383768;32;34436;-92
2022/07/11 09:44:31;;;;;;;;;;;;;;;27.60;22.29;100598.41;5390434;32;34487;-90
2022/07/11 09:47:49;;;;;;;;;;;;;;;29.34;19.90;100602.50;5399241;32;34105;-92
2022/07/11 09:51:00;;;;;;;;;;;;;;;27.92;21.15;100594.09;5388726;32;44612;-92
2022/07/11 09:54:09;;;;;;;;;;;;;;;27.31;21.81;100600.66;5402379;32;44670;-90
2022/07/11 09:57:15;;;;;;;;;;;;;;;27.72;21.96;100591.72;5374455;32;35906;-92
2022/07/11 10:00:29;;;;;;;;;;;;;;;27.93;21.47;100595.78;5353029;32;34793;-88
2022/07/11 10:03:42;;;;;;;;;;;;;;;27.02;22.76;100609.13;5385733;32;44355;-90
2022/07/11 10:07:12;;;;;;;;;;;;;;;25.65;23.61;100604.13;5344579;32;34728;-91
2022/07/11 10:10:32;;;;;;;;;;;;;;;27.49;21.33;100602.25;5343915;32;34987;-92
2022/07/11 10:13:53;;;;;;;;;;;;;;;26.61;21.82;100598.94;5359874;32;44565;-93
2022/07/11 10:17:25;;;;;;;;;;;;;;;26.38;21.62;100589.63;5363519;32;35488;-93
2022/07/11 10:20:36;;;;;;;;;;;;;;;27.06;21.57;100583.56;5375684;32;34863;-90
2022/07/11 10:23:44;;;;;;;;;;;;;;;26.49;22.67;100572.41;5371201;32;44755;-94
2022/07/11 10:26:54;;;;;;;;;;;;;;;28.63;19.34;100581.75;5379795;32;34420;-92
2022/07/11 10:30:02;;;;;;;;;;;;;;;28.10;19.46;100573.19;5371195;32;33872;-90
2022/07/11 10:33:18;;;;;;;;;;;;;;;26.87;20.66;100580.06;5379585;32;44718;-92
2022/07/11 10:36:30;;;;;;;;;;;;;;;25.74;21.64;100574.62;5378138;32;34272;-92
2022/07/11 10:39:57;;;;;;;;;;;;;;;25.27;22.29;100586.34;5351487;32;44308;-92
2022/07/11 10:43:06;;;;;;;;;;;;;;;25.48;23.17;100579.84;5390883;32;34177;-92
2022/07/11 10:46:27;;;;;;;;;;;;;;;25.71;23.04;100585.66;5372040;32;35860;-90
2022/07/11 10:50:00;;;;;;;;;;;;;;;26.30;22.44;100579.66;5320392;32;34943;-94
2022/07/11 10:53:11;;;;;;;;;;;;;;;25.52;23.21;100576.72;5315678;32;34120;-91
2022/07/11 10:56:52;;;;;;;;;;;;;;;25.13;23.88;100581.47;5380895;32;35148;-94
2022/07/11 11:00:03;;;;;;;;;;;;;;;25.56;23.00;100588.84;5339891;32;34345;-92
2022/07/11 11:03:09;;;;;;;;;;;;;;;25.28;23.35;100568.38;5322683;32;44371;-90
2022/07/11 11:06:24;;;;;;;;;;;;;;;26.39;22.25;100564.38;5314005;32;35773;-93
2022/07/11 11:09:38;;;;;;;;;;;;;;;27.34;21.24;100560.72;5280673;32;32891;-93
2022/07/11 11:13:04;;;;;;;;;;;;;;;28.48;19.76;100552.72;5332216;32;44645;-91
2022/07/11 11:16:24;;;;;;;;;;;;;;;27.96;19.54;100547.69;5304282;32;43019;-92
2022/07/11 11:19:55;;;;;;;;;;;;;;;26.14;21.93;100563.34;5322515;32;33339;-92
2022/07/11 11:23:09;;;;;;;;;;;;;;;26.58;21.51;100566.91;5350162;32;34576;-92
2022/07/11 11:26:24;;;;;;;;;;;;;;;25.59;22.66;100560.81;5317397;32;36361;-90
2022/07/11 11:29:33;;;;;;;;;;;;;;;25.66;23.20;100565.44;5337953;32;35313;-94
2022/07/11 11:32:39;;;;;;;;;;;;;;;25.77;23.01;100569.78;5307704;32;44819;-92
2022/07/11 11:36:03;;;;;;;;;;;;;;;24.62;24.58;100561.28;5305378;32;34470;-93
2022/07/11 11:39:27;;;;;;;;;;;;;;;25.17;24.12;100563.19;5317965;32;36204;-91
2022/07/11 11:42:40;;;;;;;;;;;;;;;24.57;25.68;100576.97;5317520;32;42810;-93
2022/07/11 11:45:52;;;;;;;;;;;;;;;24.38;25.81;100568.97;5295329;32;34778;-92
2022/07/11 11:49:01;;;;;;;;;;;;;;;25.03;24.78;100573.41;5335944;32;34185;-91
2022/07/11 11:52:25;;;;;;;;;;;;;;;25.76;23.98;100568.09;5287701;32;34100;-93
2022/07/11 11:55:37;;;;;;;;;;;;;;;26.89;23.15;100564.53;5276583;32;45666;-92
2022/07/11 11:58:58;;;;;;;;;;;;;;;28.21;21.50;100564.75;5294961;32;34904;-93
2022/07/11 12:02:23;;;;;;;;;;;;;;;28.15;21.50;100570.81;5291526;32;35309;-89
2022/07/11 12:05:33;;;;;;;;;;;;;;;28.10;21.64;100569.63;5345914;32;33581;-94
2022/07/11 12:08:54;;;;;;;;;;;;;;;29.09;19.48;100575.56;5361034;32;34551;-91
2022/07/11 12:19:18;;;;;;;;;;;;;;;27.68;20.60;100562.47;5382868;32;34801;-91
2022/07/11 12:22:30;;;;;;;;;;;;;;;28.21;20.16;100556.63;5395256;32;34428;-92
2022/07/11 12:25:38;;;;;;;;;;;;;;;27.41;20.10;100564.44;5119630;32;8672021;-94
2022/07/11 12:29:10;;;;;;;;;;;;;;;26.91;19.77;100562.53;5382116;32;34824;-90
2022/07/11 12:32:17;;;;;;;;;;;;;;;26.64;20.60;100573.50;5370893;32;43721;-94
2022/07/11 12:35:21;;;;;;;;;;;;;;;26.46;21.61;100565.47;5373145;32;34859;-91
2022/07/11 12:38:53;;;;;;;;;;;;;;;26.20;21.53;100554.66;5372679;32;34719;-91
2022/07/11 12:42:01;;;;;;;;;;;;;;;26.31;20.44;100559.78;5384993;32;36385;-93
2022/07/11 12:45:08;;;;;;;;;;;;;;;25.22;22.07;100569.81;5370632;32;45055;-94
2022/07/11 12:48:20;;;;;;;;;;;;;;;25.28;22.29;100574.59;5395099;32;35385;-92
2022/07/11 12:51:40;;;;;;;;;;;;;;;25.44;22.17;100554.25;5393468;32;35206;-92
2022/07/11 12:54:50;;;;;;;;;;;;;;;25.11;22.45;100561.94;5380854;32;33994;-92
2022/07/11 12:58:20;;;;;;;;;;;;;;;24.98;21.63;100561.41;5378920;32;33506;-92
2022/07/11 13:02:04;;;;;;;;;;;;;;;25.72;21.41;100561.28;5360861;32;35310;-91
2022/07/11 13:05:20;;;;;;;;;;;;;;;25.72;21.80;100550.50;5317473;32;34157;-93
2022/07/11 13:08:46;;;;;;;;;;;;;;;25.49;21.92;100550.09;5380229;32;33883;-91
2022/07/11 13:11:57;;;;;;;;;;;;;;;25.75;21.86;100546.69;5373972;32;34411;-92
2022/07/11 13:15:13;;;;;;;;;;;;;;;25.95;22.03;100539.28;5398912;32;35134;-92
2022/07/11 13:18:26;;;;;;;;;;;;;;;25.28;23.35;100542.31;5368360;32;34942;-92
2022/07/11 13:21:36;;;;;;;;;;;;;;;26.32;21.86;100526.44;5393754;32;34653;-91
2022/07/11 13:24:51;;;;;;;;;;;;;;;26.34;22.15;100543.31;5402391;32;44457;-93
2022/07/11 13:28:07;;;;;;;;;;;;;;;26.11;22.25;100531.34;5351491;32;33657;-93
2022/07/11 13:31:25;;;;;;;;;;;;;;;25.78;22.60;100541.84;5382107;32;45882;-91
2022/07/11 13:34:38;;;;;;;;;;;;;;;26.12;22.53;100538.44;5405557;32;35378;-93
2022/07/11 13:37:58;;;;;;;;;;;;;;;25.54;23.94;100538.87;5356925;32;34203;-92
2022/07/11 13:41:06;;;;;;;;;;;;;;;24.94;24.75;100551.97;5398240;32;34099;-90
2022/07/11 13:44:32;;;;;;;;;;;;;;;24.81;24.43;100542.41;5363372;32;34463;-93
2022/07/11 13:47:50;;;;;;;;;;;;;;;25.45;23.66;100547.91;5362156;32;43972;-90
2022/07/11 13:51:04;;;;;;;;;;;;;;;25.24;22.76;100540.06;5389205;32;35074;-89
2022/07/11 13:54:16;;;;;;;;;;;;;;;25.32;23.31;100526.75;5366210;32;44586;-90
2022/07/11 13:57:40;;;;;;;;;;;;;;;25.73;23.23;100528.00;5385310;32;33851;-92
2022/07/11 14:00:58;;;;;;;;;;;;;;;24.92;24.48;100544.03;5392478;32;37365;-93
2022/07/11 14:04:23;;;;;;;;;;;;;;;24.91;24.57;100546.88;5344102;32;34784;-93
2022/07/11 14:08:13;;;;;;;;;;;;;;;24.41;25.71;100537.31;5387774;32;35957;-93
2022/07/11 14:11:24;;;;;;;;;;;;;;;24.24;26.31;100546.91;5375417;32;35570;-92
2022/07/11 14:14:45;;;;;;;;;;;;;;;23.56;27.62;100547.88;5330205;32;44379;-95
2022/07/11 14:17:56;;;;;;;;;;;;;;;23.93;27.33;100550.75;5379653;32;35917;-93
2022/07/11 14:21:04;;;;;;;;;;;;;;;23.80;28.10;100556.41;5377357;32;33434;-93
2022/07/11 14:24:22;;;;;;;;;;;;;;;22.88;29.65;100567.34;5385691;32;44859;-94
2022/07/11 14:27:55;;;;;;;;;;;;;;;23.11;29.45;100559.94;5376393;32;35736;-92
2022/07/11 14:31:13;;;;;;;;;;;;;;;23.19;29.51;100570.84;5373648;32;36246;-93
2022/07/11 14:34:31;;;;;;;;;;;;;;;23.69;28.82;100556.53;5394051;32;34123;-92
2022/07/11 14:37:53;;;;;;;;;;;;;;;23.75;28.05;100555.97;5391886;32;43216;-94
2022/07/11 14:41:10;;;;;;;;;;;;;;;24.22;27.49;100556.13;5393942;32;34699;-91
2022/07/11 14:44:23;;;;;;;;;;;;;;;24.27;27.51;100561.88;5394208;32;34643;-96
2022/07/11 14:47:33;;;;;;;;;;;;;;;25.03;26.71;100553.75;5386612;32;34058;-92
2022/07/11 14:51:06;;;;;;;;;;;;;;;23.46;28.61;100551.41;5394104;32;37505;-91
2022/07/11 14:54:26;;;;;;;;;;;;;;;22.85;29.36;100569.37;5323482;32;35773;-94
2022/07/11 14:57:46;;;;;;;;;;;;;;;23.51;28.15;100543.81;5346880;32;44673;-95
2022/07/11 15:01:17;;;;;;;;;;;;;;;23.57;28.03;100537.03;5326114;32;33483;-95
2022/07/11 15:04:39;;;;;;;;;;;;;;;23.24;29.22;100557.84;5322135;32;34076;-92
2022/07/11 15:14:48;;;;;;;;;;;;;;;23.41;30.11;100559.03;5317029;32;34815;-94
2022/07/11 15:18:03;;;;;;;;;;;;;;;23.54;29.67;100555.22;5336143;32;36482;-94
2022/07/11 15:21:09;;;;;;;;;;;;;;;24.12;28.87;100548.06;5345366;32;44372;-94
2022/07/11 15:24:16;;;;;;;;;;;;;;;24.00;28.69;100563.47;5300756;32;35210;-92
2022/07/11 15:27:35;;;;;;;;;;;;;;;24.14;28.12;100556.81;5338239;32;35415;-93
2022/07/11 15:30:52;;;;;;;;;;;;;;;23.99;28.43;100558.25;5338391;32;37632;-93
2022/07/11 15:34:06;;;;;;;;;;;;;;;24.45;27.39;100551.28;5349077;32;34178;-93
2022/07/11 15:37:26;;;;;;;;;;;;;;;24.91;27.07;100549.56;5341801;32;43152;-92
2022/07/11 15:40:32;;;;;;;;;;;;;;;25.11;26.83;100552.03;5347237;32;37881;-92
2022/07/11 15:43:40;;;;;;;;;;;;;;;23.89;27.14;100570.81;5318766;32;44528;-94
2022/07/11 15:46:48;;;;;;;;;;;;;;;23.52;27.98;100556.22;5303523;32;35573;-96
2022/07/11 15:50:21;;;;;;;;;;;;;;;23.54;28.21;100561.44;5333796;32;33968;-93
2022/07/11 15:53:49;;;;;;;;;;;;;;;23.95;27.95;100549.63;5389548;32;33721;-93
2022/07/11 15:57:35;;;;;;;;;;;;;;;23.47;29.17;100552.25;5375619;32;35899;-96
2022/07/11 16:04:26;;;;;;;;;;;;;;;23.22;28.80;100558.97;5414047;27;35955;-94
2022/07/11 16:07:29;;;;;;;;;;;;;;;23.66;27.74;100557.69;5375969;32;33901;-95
2022/07/11 16:10:32;;;;;;;;;;;;;;;23.98;27.26;100556.56;5418112;32;33632;-95
2022/07/11 16:13:34;;;;;;;;;;;;;;;23.97;26.76;100554.88;5416045;32;33870;-96
2022/07/11 16:16:37;;;;;;;;;;;;;;;23.65;27.31;100553.31;5406955;32;44520;-95
2022/07/11 16:19:49;;;;;;;;;;;;;;;23.71;27.08;100554.59;5408645;32;33505;-95
2022/07/11 16:22:57;;;;;;;;;;;;;;;23.73;26.94;100560.66;5312129;33;36445;-96
2022/07/11 16:26:03;;;;;;;;;;;;;;;23.72;26.54;100565.16;5325394;33;34595;-94
2022/07/11 16:29:05;;;;;;;;;;;;;;;23.41;27.37;100558.19;5323768;33;36744;-96
2022/07/11 16:32:08;;;;;;;;;;;;;;;23.89;26.79;100557.38;5317547;33;46154;-95
2022/07/11 16:35:10;;;;;;;;;;;;;;;24.18;26.50;100547.50;5331992;32;37443;-96
2022/07/11 16:38:13;;;;;;;;;;;;;;;24.35;26.30;100550.47;5336998;32;36369;-95
2022/07/11 16:44:43;;;;;;;;;;;;;;;23.44;27.43;100558.75;5398947;32;45605;-92
2022/07/11 16:47:48;;;;;;;;;;;;;;;23.44;27.70;100549.84;5401808;32;36629;-96
2022/07/11 16:50:50;;;;;;;;;;;;;;;23.80;26.81;100558.25;5385314;32;34353;-95
2022/07/11 16:53:53;;;;;;;;;;;;;;;23.90;26.66;100548.38;5414284;32;34004;-94